27 | 05 | 2016
Hauptmenü
Navigation
Login Form

jNews Module
Bitte registrieren Sie sich, bevor Sie eine Liste abonnieren.
No account yet? Register
Letzte Beiträge
Meistgelesen
Metar Bottom
EDDB
EDDB 262350Z 32004KT 270V340 6000 MIFG NSC 10/10 Q1017 NOSIG
Termine
Mi Jun 08 @19:30 -
Clubabend
Mi Jul 13 @19:30 -
Clubabend
Metar
EDDW
EDDW 262350Z 02004KT CAVOK 12/11 Q1017
TAF
EDDW
TAF EDDW 261700Z 2618/2718 36004KT 9999 FEW020
TEMPO 2622/2624 BKN008
BECMG 2700/2702 3500 BR BKN008 PROB30
TEMPO 2702/2706 0500 FG BKN001
BECMG 2707/2709 06005KT 9999 BKN012
BECMG 2709/2711 SCT035
NOTAM
Data not avlb.
(due to wrong input of icao-codes or 'allow_url_fopen' is OFF [1] and cURL not enabled [1] on this server!)
Visitors Counter
437336
Diese WocheDiese Woche908
Diesen MonatDiesen Monat17536
Metar Test1